Time;durP1;ratioP1;P1;durP2;ratioP2;P2;SDS_P1;SDS_P2;PMS_P1;PMS_P2;Temp;Humidity;BMP_temperature;BMP_pressure;BME280_temperature;BME280_humidity;BME280_pressure;Samples;Min_cycle;Max_cycle;Signal;HPM_P1;HPM_P2
2021/11/21 00:01:33;;;;;;;3.53;0.85;;;17.20;99.90;;;;;;5006055;28;20050;-75
2021/11/21 00:03:59;;;;;;;3.10;1.10;;;17.20;99.90;;;;;;5006680;28;20125;-75
2021/11/21 00:06:25;;;;;;;3.67;1.00;;;17.20;99.90;;;;;;4993353;28;20116;-75
2021/11/21 00:08:52;;;;;;;2.65;1.05;;;17.20;99.90;;;;;;5011914;28;20437;-75
2021/11/21 00:11:18;;;;;;;3.70;1.30;;;17.10;99.90;;;;;;5012087;28;20128;-75
2021/11/21 00:13:45;;;;;;;2.53;1.02;;;17.10;99.90;;;;;;5012340;28;20120;-75
2021/11/21 00:16:11;;;;;;;2.92;0.98;;;17.10;99.90;;;;;;4992955;28;20060;-75
2021/11/21 00:18:37;;;;;;;4.57;1.00;;;17.10;99.90;;;;;;5011006;28;20049;-75
2021/11/21 00:21:03;;;;;;;2.47;0.70;;;17.10;99.90;;;;;;5011673;28;20056;-75
2021/11/21 00:23:28;;;;;;;3.75;1.02;;;17.10;99.90;;;;;;5008880;28;20057;-75
2021/11/21 00:25:54;;;;;;;2.55;0.98;;;17.10;99.90;;;;;;5008032;28;20053;-75
2021/11/21 00:28:20;;;;;;;1.77;1.33;;;17.10;99.90;;;;;;5011927;28;20034;-74
2021/11/21 00:30:45;;;;;;;1.00;0.88;;;17.10;99.90;;;;;;5007047;28;20085;-75
2021/11/21 00:33:11;;;;;;;1.50;1.00;;;17.00;99.90;;;;;;5005153;28;20513;-75
2021/11/21 00:35:37;;;;;;;1.95;1.00;;;17.00;99.90;;;;;;4999005;28;20042;-75
2021/11/21 00:38:03;;;;;;;5.28;1.33;;;17.00;99.90;;;;;;4999415;28;20046;-75
2021/11/21 00:40:29;;;;;;;4.43;1.08;;;17.00;99.90;;;;;;5004251;28;20454;-74
2021/11/21 00:42:57;;;;;;;1.33;1.00;;;17.00;99.90;;;;;;5000597;28;20054;-75
2021/11/21 00:45:24;;;;;;;2.30;1.02;;;17.00;99.90;;;;;;5006292;28;20114;-74
2021/11/21 00:47:50;;;;;;;1.88;0.90;;;17.00;99.90;;;;;;4999475;28;20140;-75
2021/11/21 00:50:22;;;;;;;3.05;0.85;;;17.00;99.90;;;;;;4996913;28;20152;-74
2021/11/21 00:52:48;;;;;;;4.68;0.70;;;16.90;99.90;;;;;;4999635;28;20076;-74
2021/11/21 00:55:16;;;;;;;1.55;0.77;;;16.90;99.90;;;;;;5001354;28;20452;-75
2021/11/21 00:57:43;;;;;;;1.58;0.90;;;16.90;99.90;;;;;;5002158;28;20176;-75
2021/11/21 01:00:14;;;;;;;1.30;0.82;;;16.90;99.90;;;;;;5001793;28;20563;-75
2021/11/21 01:02:41;;;;;;;4.28;0.73;;;16.90;99.90;;;;;;5010019;28;20068;-74
2021/11/21 01:05:09;;;;;;;3.15;1.00;;;16.90;99.90;;;;;;5009260;28;20042;-74
2021/11/21 01:07:38;;;;;;;2.88;1.25;;;16.90;99.90;;;;;;5011826;28;20046;-74
2021/11/21 01:10:11;;;;;;;1.52;0.93;;;16.90;99.90;;;;;;5005294;28;20097;-75
2021/11/21 01:12:37;;;;;;;5.10;0.95;;;16.90;99.90;;;;;;5002063;28;20052;-75
2021/11/21 01:15:04;;;;;;;4.40;1.00;;;16.80;99.90;;;;;;5005055;28;20050;-75
2021/11/21 01:17:30;;;;;;;3.95;1.35;;;16.90;99.90;;;;;;5004297;28;20089;-74
2021/11/21 01:20:00;;;;;;;0.60;0.60;;;16.80;99.90;;;;;;5009214;28;20073;-75
2021/11/21 01:22:31;;;;;;;1.23;0.83;;;16.80;99.90;;;;;;5011227;28;20093;-74
2021/11/21 01:24:58;;;;;;;1.75;0.70;;;16.80;99.90;;;;;;5009958;28;20768;-75
2021/11/21 01:27:24;;;;;;;2.88;1.00;;;16.80;99.90;;;;;;5010884;28;20061;-75
2021/11/21 01:29:50;;;;;;;0.80;0.70;;;16.80;99.90;;;;;;4998284;28;20046;-75
2021/11/21 01:32:16;;;;;;;0.85;0.55;;;16.80;99.90;;;;;;5009481;28;20053;-74
2021/11/21 01:34:42;;;;;;;3.17;1.67;;;16.80;99.90;;;;;;5010943;28;20045;-74
2021/11/21 01:37:08;;;;;;;0.70;0.68;;;16.80;99.90;;;;;;4993021;28;20054;-74
2021/11/21 01:39:34;;;;;;;2.85;0.82;;;16.80;99.90;;;;;;5010048;28;20058;-74
2021/11/21 01:42:00;;;;;;;1.08;0.82;;;16.80;99.90;;;;;;5010044;28;20042;-74
2021/11/21 01:44:25;;;;;;;2.08;1.13;;;16.70;99.90;;;;;;5008654;28;20046;-74
2021/11/21 01:46:51;;;;;;;4.47;0.93;;;16.80;99.90;;;;;;5010867;28;20050;-75
2021/11/21 01:49:20;;;;;;;0.52;0.47;;;16.70;99.90;;;;;;5009200;28;20053;-75
2021/11/21 01:51:49;;;;;;;2.05;0.82;;;16.70;99.90;;;;;;5009881;28;20064;-75
2021/11/21 01:54:17;;;;;;;2.60;0.80;;;16.70;99.90;;;;;;4996386;28;20516;-75
2021/11/21 01:56:45;;;;;;;1.10;0.68;;;16.70;99.90;;;;;;5004562;28;20088;-75
2021/11/21 01:59:11;;;;;;;1.75;1.08;;;16.70;99.90;;;;;;5009760;28;20478;-75
2021/11/21 02:01:36;;;;;;;2.20;0.63;;;16.70;99.90;;;;;;5009780;28;20060;-75
2021/11/21 02:04:03;;;;;;;0.73;0.70;;;16.60;99.90;;;;;;5010558;28;20052;-75
2021/11/21 02:06:29;;;;;;;1.58;0.60;;;16.60;99.90;;;;;;5005546;28;20085;-75
2021/11/21 02:08:56;;;;;;;2.83;0.60;;;16.70;99.90;;;;;;5009315;28;20107;-75
2021/11/21 02:11:24;;;;;;;1.25;0.73;;;16.60;99.90;;;;;;5010189;28;20121;-75
2021/11/21 02:13:50;;;;;;;1.98;0.70;;;16.60;99.90;;;;;;5010630;28;20053;-75
2021/11/21 02:16:23;;;;;;;2.88;0.65;;;16.60;99.90;;;;;;5008095;28;20042;-75
2021/11/21 02:18:50;;;;;;;1.08;0.75;;;16.60;99.90;;;;;;5006110;28;20571;-75
2021/11/21 02:21:17;;;;;;;2.58;0.70;;;16.60;99.90;;;;;;4992083;28;20045;-75
2021/11/21 02:23:45;;;;;;;1.20;0.70;;;16.60;99.90;;;;;;5009458;28;20125;-75
2021/11/21 02:26:13;;;;;;;0.47;0.47;;;16.60;99.90;;;;;;5009586;28;20045;-75
2021/11/21 02:28:40;;;;;;;0.85;0.52;;;16.60;99.90;;;;;;5007729;28;20397;-75
2021/11/21 02:31:06;;;;;;;0.50;0.50;;;16.60;99.90;;;;;;5008969;28;20050;-75
2021/11/21 02:33:32;;;;;;;1.17;0.70;;;16.60;99.90;;;;;;5008857;28;20121;-74
2021/11/21 02:36:01;;;;;;;0.70;0.50;;;16.60;99.90;;;;;;5010184;28;20482;-75
2021/11/21 02:38:28;;;;;;;1.00;0.60;;;16.60;99.90;;;;;;5002732;28;20042;-75
2021/11/21 02:40:58;;;;;;;1.00;0.65;;;16.50;99.90;;;;;;5001609;28;20548;-75
2021/11/21 02:43:24;;;;;;;;;;;16.50;99.90;;;;;;5010130;28;20125;-75
2021/11/21 02:45:52;;;;;;;0.50;0.50;;;16.50;99.90;;;;;;5010155;28;20004;-75
2021/11/21 02:48:20;;;;;;;2.00;0.70;;;16.50;99.90;;;;;;5007579;28;20054;-75
2021/11/21 02:50:46;;;;;;;0.75;0.70;;;16.50;99.90;;;;;;5007755;28;20057;-75
2021/11/21 02:53:16;;;;;;;0.77;0.57;;;16.50;99.90;;;;;;5009380;28;20054;-76
2021/11/21 02:55:42;;;;;;;0.65;0.60;;;16.50;99.90;;;;;;5009991;28;20120;-75
2021/11/21 02:58:08;;;;;;;0.50;0.45;;;16.50;99.90;;;;;;5010071;28;20118;-74
2021/11/21 03:00:35;;;;;;;0.50;0.50;;;16.50;99.90;;;;;;4998362;28;20543;-74
2021/11/21 03:03:01;;;;;;;1.08;0.50;;;16.50;99.90;;;;;;5008478;28;20128;-74
2021/11/21 03:05:27;;;;;;;0.98;0.50;;;16.50;99.90;;;;;;5009170;28;20048;-75
2021/11/21 03:07:53;;;;;;;1.48;0.80;;;16.50;99.90;;;;;;5009929;28;20053;-75
2021/11/21 03:10:20;;;;;;;0.52;0.52;;;16.50;99.90;;;;;;5008569;28;20053;-75
2021/11/21 03:12:52;;;;;;;1.08;0.63;;;16.50;99.90;;;;;;5000324;28;20060;-75
2021/11/21 03:15:18;;;;;;;1.42;0.60;;;16.50;99.90;;;;;;5009254;28;20116;-75
2021/11/21 03:17:44;;;;;;;1.95;0.68;;;16.40;99.90;;;;;;5009660;28;20449;-75
2021/11/21 03:20:16;;;;;;;1.30;0.55;;;16.50;99.90;;;;;;5008053;28;20045;-76
2021/11/21 03:22:42;;;;;;;0.50;0.47;;;16.40;99.90;;;;;;5009674;28;20050;-75
2021/11/21 03:25:10;;;;;;;0.32;0.32;;;16.40;99.90;;;;;;5008741;28;20544;-75
2021/11/21 03:27:36;;;;;;;0.60;0.60;;;16.40;99.90;;;;;;5008199;28;20058;-75
2021/11/21 03:30:04;;;;;;;0.57;0.57;;;16.40;99.90;;;;;;5009407;28;20053;-75
2021/11/21 03:32:30;;;;;;;0.70;0.60;;;16.40;99.90;;;;;;5007755;28;20081;-75
2021/11/21 03:34:55;;;;;;;1.33;0.60;;;16.40;99.90;;;;;;5009462;28;20145;-75
2021/11/21 03:37:21;;;;;;;1.52;0.60;;;16.40;99.90;;;;;;5007882;28;20038;-75
2021/11/21 03:39:49;;;;;;;0.55;0.50;;;16.40;99.90;;;;;;5008504;28;20050;-75
2021/11/21 03:42:15;;;;;;;2.55;0.77;;;16.40;99.90;;;;;;5007710;28;20119;-75
2021/11/21 03:44:41;;;;;;;1.00;0.80;;;16.40;99.90;;;;;;5008069;28;20482;-75
2021/11/21 03:47:06;;;;;;;1.52;0.45;;;16.40;99.90;;;;;;5008260;28;20075;-74
2021/11/21 03:49:32;;;;;;;1.35;0.70;;;16.40;99.90;;;;;;5007297;28;20046;-74
2021/11/21 03:51:58;;;;;;;2.67;0.50;;;16.30;99.90;;;;;;5004820;28;20156;-75
2021/11/21 03:54:24;;;;;;;3.88;0.80;;;16.40;99.90;;;;;;4999562;28;20126;-74
2021/11/21 03:56:50;;;;;;;1.80;0.70;;;16.30;99.90;;;;;;5009257;28;20053;-74
2021/11/21 03:59:16;;;;;;;0.80;0.50;;;16.30;99.90;;;;;;5009238;28;20046;-75
2021/11/21 04:01:41;;;;;;;1.05;0.70;;;16.30;99.90;;;;;;5007744;28;20054;-75
2021/11/21 04:04:07;;;;;;;0.77;0.60;;;16.30;99.90;;;;;;4997120;28;20046;-75
2021/11/21 04:06:33;;;;;;;0.70;0.70;;;16.30;99.90;;;;;;5007635;28;20050;-75
2021/11/21 04:08:59;;;;;;;1.02;0.70;;;16.30;99.90;;;;;;5007900;28;20161;-75
2021/11/21 04:11:25;;;;;;;1.88;0.93;;;16.30;99.90;;;;;;5008948;28;20120;-75
2021/11/21 04:13:51;;;;;;;1.42;0.60;;;16.30;99.90;;;;;;5012431;28;20050;-75
2021/11/21 04:16:17;;;;;;;1.65;0.65;;;16.30;99.90;;;;;;5012551;28;20497;-74
2021/11/21 04:18:42;;;;;;;0.93;0.60;;;16.30;99.90;;;;;;5012472;28;20053;-75
2021/11/21 04:21:09;;;;;;;1.67;0.70;;;16.30;99.90;;;;;;5011167;28;20042;-75
2021/11/21 04:23:35;;;;;;;0.88;0.70;;;16.30;99.90;;;;;;5010495;28;20176;-75
2021/11/21 04:26:01;;;;;;;1.08;0.82;;;16.30;99.90;;;;;;5007910;28;20494;-74
2021/11/21 04:28:28;;;;;;;3.45;0.75;;;16.20;99.90;;;;;;5006526;28;20053;-72
2021/11/21 04:30:54;;;;;;;2.38;0.98;;;16.30;99.90;;;;;;5010745;28;20083;-75
2021/11/21 04:33:23;;;;;;;1.17;0.50;;;16.30;99.90;;;;;;5011083;28;20110;-76
2021/11/21 04:35:50;;;;;;;0.70;0.50;;;16.20;99.90;;;;;;5008345;28;20053;-76
2021/11/21 04:38:16;;;;;;;2.95;0.82;;;16.20;99.90;;;;;;5011408;28;20042;-75
2021/11/21 04:40:43;;;;;;;5.55;0.85;;;16.20;99.90;;;;;;5010887;28;20041;-75
2021/11/21 04:43:11;;;;;;;2.47;0.82;;;16.20;99.90;;;;;;5010749;28;20050;-75
2021/11/21 04:45:37;;;;;;;2.00;0.68;;;16.20;99.90;;;;;;5006961;28;20050;-75
2021/11/21 04:48:04;;;;;;;1.20;0.63;;;16.20;99.90;;;;;;4980555;28;20057;-76
2021/11/21 04:50:30;;;;;;;1.00;0.68;;;16.20;99.90;;;;;;5009018;28;20062;-76
2021/11/21 04:52:55;;;;;;;2.10;0.57;;;16.20;99.90;;;;;;5008275;28;20367;-75
2021/11/21 04:55:21;;;;;;;0.60;0.60;;;16.20;99.90;;;;;;5004779;28;20048;-75
2021/11/21 04:57:47;;;;;;;1.27;0.63;;;16.20;99.90;;;;;;5010673;28;20056;-75
2021/11/21 05:00:17;;;;;;;1.63;0.70;;;16.20;99.90;;;;;;5006664;28;20077;-75
2021/11/21 05:02:47;;;;;;;1.50;0.55;;;16.20;99.90;;;;;;5007665;28;20069;-75
2021/11/21 05:05:14;;;;;;;1.77;0.77;;;16.20;99.90;;;;;;5006351;28;20547;-75
2021/11/21 05:07:40;;;;;;;0.80;0.60;;;16.10;99.90;;;;;;5008634;28;20117;-75
2021/11/21 05:10:07;;;;;;;4.32;1.00;;;16.20;99.90;;;;;;5010437;28;20048;-75
2021/11/21 05:12:34;;;;;;;1.40;0.60;;;16.10;99.90;;;;;;5009837;28;20058;-75
2021/11/21 05:15:01;;;;;;;1.73;0.80;;;16.10;99.90;;;;;;5011722;28;20129;-75
2021/11/21 05:17:27;;;;;;;2.78;0.65;;;16.10;99.90;;;;;;5009046;28;20058;-76
2021/11/21 05:19:53;;;;;;;3.00;0.80;;;16.10;99.90;;;;;;4980811;28;20085;-75
2021/11/21 05:22:19;;;;;;;1.65;0.70;;;16.10;99.90;;;;;;5010377;28;20084;-75
2021/11/21 05:24:45;;;;;;;1.27;0.70;;;16.10;99.90;;;;;;5010487;28;20042;-75
2021/11/21 05:27:11;;;;;;;0.85;0.45;;;16.10;99.90;;;;;;5009794;28;20117;-76
2021/11/21 05:29:37;;;;;;;1.48;0.60;;;16.10;99.90;;;;;;5009457;28;20501;-75
2021/11/21 05:32:03;;;;;;;1.98;1.23;;;16.10;99.90;;;;;;5011191;28;20108;-75
2021/11/21 05:34:29;;;;;;;2.97;0.82;;;16.10;99.90;;;;;;5010808;28;20050;-76
2021/11/21 05:36:55;;;;;;;0.70;0.65;;;16.10;99.90;;;;;;5009611;28;20053;-75
2021/11/21 05:39:20;;;;;;;1.80;0.70;;;16.10;99.90;;;;;;5011143;28;20038;-75
2021/11/21 05:41:46;;;;;;;1.50;0.88;;;16.00;99.90;;;;;;5010436;28;20052;-75
2021/11/21 05:44:13;;;;;;;6.60;0.85;;;16.00;99.90;;;;;;4993766;28;20200;-75
2021/11/21 05:46:38;;;;;;;1.20;1.00;;;16.10;99.90;;;;;;5004488;28;20107;-75
2021/11/21 05:49:04;;;;;;;0.95;0.70;;;16.00;99.90;;;;;;4999685;28;20140;-75
2021/11/21 05:51:30;;;;;;;1.60;0.95;;;16.00;99.90;;;;;;5003856;28;20050;-76
2021/11/21 05:53:56;;;;;;;2.85;0.80;;;16.00;99.90;;;;;;4991994;28;20057;-75
2021/11/21 05:56:21;;;;;;;1.95;0.70;;;16.00;99.90;;;;;;5003475;28;20060;-75
2021/11/21 05:58:47;;;;;;;3.35;0.90;;;16.00;99.90;;;;;;5010149;28;20044;-75
2021/11/21 06:01:18;;;;;;;1.35;0.60;;;16.00;99.90;;;;;;5010701;28;20061;-75
2021/11/21 06:03:44;;;;;;;1.73;0.80;;;16.00;99.90;;;;;;5010058;28;20125;-75
2021/11/21 06:06:10;;;;;;;3.78;0.77;;;16.00;99.90;;;;;;5010577;28;20828;-75
2021/11/21 06:08:35;;;;;;;4.30;1.00;;;15.90;99.90;;;;;;5008842;28;20042;-75
2021/11/21 06:11:01;;;;;;;2.10;0.90;;;15.90;99.90;;;;;;4996129;28;20096;-75
2021/11/21 06:13:27;;;;;;;1.75;0.80;;;15.90;99.90;;;;;;5010652;28;20041;-75
2021/11/21 06:15:54;;;;;;;2.50;0.95;;;15.90;99.90;;;;;;4974175;28;20042;-75
2021/11/21 06:18:19;;;;;;;2.78;0.70;;;15.90;99.90;;;;;;5009374;28;20042;-75
2021/11/21 06:20:46;;;;;;;5.25;1.02;;;15.90;99.90;;;;;;4999885;28;20046;-74
2021/11/21 06:23:12;;;;;;;2.25;0.60;;;15.90;99.90;;;;;;5009783;28;20045;-75
2021/11/21 06:25:39;;;;;;;2.58;0.90;;;15.80;99.90;;;;;;5009897;28;20132;-75
2021/11/21 06:28:05;;;;;;;1.55;0.90;;;15.90;99.90;;;;;;4992682;28;20042;-75
2021/11/21 06:30:31;;;;;;;4.93;1.20;;;15.90;99.90;;;;;;5007404;28;20050;-75
2021/11/21 06:32:57;;;;;;;3.30;0.82;;;15.90;99.90;;;;;;4994280;28;20054;-75
2021/11/21 06:35:23;;;;;;;3.72;0.80;;;15.90;99.90;;;;;;5009462;28;20049;-75
2021/11/21 06:37:49;;;;;;;3.22;1.00;;;15.90;99.90;;;;;;5009673;28;20058;-75
2021/11/21 06:40:16;;;;;;;3.38;0.90;;;16.00;99.90;;;;;;5010074;28;20041;-75
2021/11/21 06:42:42;;;;;;;3.65;0.82;;;16.00;99.90;;;;;;5004700;28;20045;-75
2021/11/21 06:45:10;;;;;;;3.25;1.00;;;16.00;99.90;;;;;;5008767;28;20484;-75
2021/11/21 06:47:36;;;;;;;1.00;0.90;;;16.10;99.90;;;;;;5008512;28;20482;-76
2021/11/21 06:50:04;;;;;;;3.15;1.40;;;16.10;99.90;;;;;;5009894;28;20049;-75
2021/11/21 06:52:31;;;;;;;2.40;0.70;;;16.20;99.90;;;;;;5006756;28;20486;-75
2021/11/21 06:54:57;;;;;;;2.58;0.93;;;16.20;99.90;;;;;;5009160;28;20069;-75
2021/11/21 06:57:23;;;;;;;1.38;0.90;;;16.30;99.90;;;;;;5010089;28;20109;-75
2021/11/21 06:59:48;;;;;;;2.88;0.70;;;16.30;99.90;;;;;;5009402;28;20117;-75
2021/11/21 07:02:15;;;;;;;2.72;1.10;;;16.40;99.90;;;;;;5007145;28;20089;-76
2021/11/21 07:04:40;;;;;;;2.55;1.17;;;16.40;99.90;;;;;;5009238;28;20048;-75
2021/11/21 07:07:10;;;;;;;1.85;0.60;;;16.40;99.90;;;;;;5008697;28;20388;-75
2021/11/21 07:09:37;;;;;;;;;;;16.50;99.90;;;;;;5008782;28;20038;-76
2021/11/21 07:12:03;;;;;;;3.72;0.98;;;16.50;99.90;;;;;;5009533;28;20403;-75
2021/11/21 07:14:29;;;;;;;2.47;1.05;;;16.50;99.90;;;;;;5008139;28;20049;-75
2021/11/21 07:16:55;;;;;;;0.85;0.40;;;16.50;99.90;;;;;;5007971;28;20050;-76
2021/11/21 07:19:21;;;;;;;2.75;0.95;;;16.60;99.90;;;;;;5008415;28;20091;-75
2021/11/21 07:21:47;;;;;;;3.78;0.90;;;16.50;99.90;;;;;;5007966;28;20052;-75
2021/11/21 07:24:14;;;;;;;2.90;1.00;;;16.50;99.90;;;;;;5008086;28;20053;-76
2021/11/21 07:26:41;;;;;;;1.30;0.70;;;16.60;99.90;;;;;;5010996;28;20057;-76
2021/11/21 07:29:08;;;;;;;1.10;0.60;;;16.60;99.90;;;;;;5009652;28;20471;-75
2021/11/21 07:31:35;;;;;;;2.05;0.82;;;16.60;99.90;;;;;;4994258;28;20251;-75
2021/11/21 07:34:01;;;;;;;1.42;0.60;;;16.60;99.90;;;;;;4998750;28;20061;-75
2021/11/21 07:36:27;;;;;;;2.20;0.73;;;16.60;99.90;;;;;;5008547;28;20072;-76
2021/11/21 07:38:53;;;;;;;1.70;1.00;;;16.60;99.90;;;;;;4972328;28;20386;-75
2021/11/21 07:41:19;;;;;;;1.40;0.77;;;16.70;99.90;;;;;;5001070;28;20046;-75
2021/11/21 07:43:44;;;;;;;3.80;1.02;;;16.60;99.90;;;;;;4993364;28;20077;-75
2021/11/21 07:46:10;;;;;;;2.22;0.70;;;16.70;99.90;;;;;;5002433;28;20053;-76
2021/11/21 07:48:36;;;;;;;1.67;0.85;;;16.70;99.90;;;;;;5004707;28;20056;-75
2021/11/21 07:51:03;;;;;;;2.40;0.60;;;16.70;99.90;;;;;;5011617;28;20042;-75
2021/11/21 07:53:29;;;;;;;2.55;0.65;;;16.70;99.90;;;;;;5011811;28;20696;-75
2021/11/21 07:55:56;;;;;;;3.45;0.80;;;16.80;99.90;;;;;;5008126;28;20057;-75
2021/11/21 07:58:21;;;;;;;5.00;0.70;;;16.90;99.90;;;;;;4999771;28;20058;-75
2021/11/21 08:00:48;;;;;;;1.30;0.65;;;16.90;99.90;;;;;;5012204;28;20042;-75
2021/11/21 08:03:14;;;;;;;3.15;1.10;;;16.90;99.90;;;;;;5001167;28;20063;-75
2021/11/21 08:05:40;;;;;;;1.85;0.70;;;16.90;99.90;;;;;;4999095;28;20053;-75
2021/11/21 08:08:06;;;;;;;1.73;0.95;;;17.00;99.90;;;;;;5001547;28;20383;-75
2021/11/21 08:10:32;;;;;;;1.88;0.80;;;17.10;99.90;;;;;;5008974;28;20049;-75
2021/11/21 08:12:58;;;;;;;3.10;1.00;;;17.10;99.90;;;;;;5006696;28;20068;-76
2021/11/21 08:15:24;;;;;;;1.38;0.60;;;17.10;99.90;;;;;;5008108;28;20050;-75
2021/11/21 08:17:50;;;;;;;2.22;0.77;;;17.10;99.90;;;;;;5004985;28;20076;-75
2021/11/21 08:20:15;;;;;;;1.25;0.70;;;17.10;99.90;;;;;;4998107;28;20478;-75
2021/11/21 08:22:41;;;;;;;2.17;0.90;;;17.10;99.90;;;;;;5002243;28;20047;-75
2021/11/21 08:25:08;;;;;;;2.22;0.90;;;17.10;99.90;;;;;;5011963;28;20417;-76
2021/11/21 08:27:34;;;;;;;1.17;0.75;;;17.20;99.90;;;;;;5001808;28;20141;-76
2021/11/21 08:30:00;;;;;;;2.67;1.17;;;17.30;99.90;;;;;;5005643;28;20049;-75
2021/11/21 08:32:26;;;;;;;2.55;0.65;;;17.40;99.90;;;;;;5005000;28;20376;-76
2021/11/21 08:34:52;;;;;;;1.33;0.80;;;17.60;99.90;;;;;;5003040;28;20049;-76
2021/11/21 08:37:17;;;;;;;1.30;0.70;;;17.70;99.90;;;;;;4998975;28;20565;-76
2021/11/21 08:39:43;;;;;;;1.08;0.68;;;17.80;99.90;;;;;;4983308;28;20046;-76
2021/11/21 08:42:09;;;;;;;1.45;0.68;;;17.70;99.90;;;;;;4999491;28;20564;-76
2021/11/21 08:44:35;;;;;;;2.63;0.88;;;17.70;99.90;;;;;;5002525;28;20117;-75
2021/11/21 08:47:01;;;;;;;2.97;0.60;;;17.60;99.90;;;;;;5008235;28;20076;-76
2021/11/21 08:49:27;;;;;;;1.15;0.88;;;17.50;99.90;;;;;;5010545;28;20050;-76
2021/11/21 08:51:53;;;;;;;2.33;0.82;;;17.50;99.90;;;;;;5011040;28;20049;-76
2021/11/21 08:54:19;;;;;;;2.78;1.05;;;17.70;99.90;;;;;;5010344;28;20046;-75
2021/11/21 08:56:47;;;;;;;1.52;0.88;;;17.90;99.90;;;;;;5002915;28;20085;-76
2021/11/21 08:59:13;;;;;;;1.75;0.80;;;18.00;99.90;;;;;;5007278;28;20050;-76
2021/11/21 09:01:40;;;;;;;2.70;0.90;;;18.10;99.90;;;;;;5003153;28;20065;-77
2021/11/21 09:04:06;;;;;;;2.50;0.98;;;18.30;99.90;;;;;;5004023;28;20504;-76
2021/11/21 09:06:32;;;;;;;2.40;0.90;;;18.40;99.90;;;;;;5001544;28;20050;-77
2021/11/21 09:08:58;;;;;;;6.90;0.90;;;18.40;99.90;;;;;;4994977;28;20563;-76
2021/11/21 09:11:24;;;;;;;5.30;0.80;;;18.20;99.90;;;;;;5010770;28;20042;-75
2021/11/21 09:13:50;;;;;;;1.88;0.88;;;18.40;99.90;;;;;;5008605;28;20124;-77
2021/11/21 09:16:15;;;;;;;3.05;1.08;;;18.50;99.90;;;;;;5009971;28;20561;-76
2021/11/21 09:18:41;;;;;;;4.32;0.90;;;18.60;99.90;;;;;;4994540;28;20052;-76
2021/11/21 09:21:07;;;;;;;6.20;1.00;;;18.70;99.90;;;;;;5010601;28;20064;-76
2021/11/21 09:23:33;;;;;;;2.92;0.88;;;18.70;99.90;;;;;;5009541;28;20552;-76
2021/11/21 09:25:59;;;;;;;4.60;1.17;;;18.80;99.90;;;;;;5009742;28;20053;-76
2021/11/21 09:28:25;;;;;;;2.83;1.38;;;18.70;99.90;;;;;;5010991;28;20077;-76
2021/11/21 09:30:55;;;;;;;6.20;1.25;;;18.60;99.90;;;;;;5002359;28;20429;-76
2021/11/21 09:33:23;;;;;;;2.53;1.23;;;18.70;99.90;;;;;;5005678;28;20081;-75
2021/11/21 09:35:49;;;;;;;6.53;1.15;;;18.80;99.90;;;;;;5005602;28;20045;-76
2021/11/21 09:38:15;;;;;;;12.88;1.60;;;18.80;99.90;;;;;;5003241;28;20119;-75
2021/11/21 09:40:41;;;;;;;5.03;0.98;;;18.70;99.90;;;;;;5004855;28;20049;-76
2021/11/21 09:43:17;;;;;;;11.80;1.20;;;18.60;99.90;;;;;;5003328;28;20042;-73
2021/11/21 09:45:51;;;;;;;7.80;0.93;;;18.60;99.90;;;;;;5003448;28;20042;-74
2021/11/21 09:48:18;;;;;;;;;;;18.70;99.90;;;;;;5001091;28;20125;-75
2021/11/21 09:50:44;;;;;;;2.22;0.80;;;18.80;99.90;;;;;;5007736;28;19925;-76
2021/11/21 09:53:11;;;;;;;2.55;0.93;;;19.10;99.90;;;;;;5004922;28;20048;-75
2021/11/21 09:55:38;;;;;;;4.53;1.15;;;19.20;99.90;;;;;;5007783;28;20034;-76
2021/11/21 09:58:05;;;;;;;3.00;0.90;;;19.40;99.90;;;;;;5006704;28;20100;-76
2021/11/21 10:00:32;;;;;;;10.30;0.98;;;19.50;99.90;;;;;;5007195;28;20077;-75
2021/11/21 10:03:03;;;;;;;7.95;1.05;;;19.70;99.90;;;;;;4965789;28;20046;-75
2021/11/21 10:05:31;;;;;;;5.78;1.35;;;19.90;99.90;;;;;;5006930;28;20049;-75
2021/11/21 10:08:07;;;;;;;11.40;1.25;;;20.10;99.90;;;;;;5008038;28;20120;-76
2021/11/21 10:10:38;;;;;;;7.30;2.08;;;20.20;99.90;;;;;;5009733;28;20124;-76
2021/11/21 10:13:04;;;;;;;4.45;1.05;;;20.30;99.90;;;;;;5010151;28;20045;-75
2021/11/21 10:15:31;;;;;;;2.75;0.82;;;20.20;99.90;;;;;;5013268;28;20074;-75
2021/11/21 10:17:57;;;;;;;6.45;1.13;;;20.10;99.90;;;;;;5008524;28;20041;-76
2021/11/21 10:20:28;;;;;;;3.75;1.10;;;20.30;99.90;;;;;;5012213;28;20050;-75
2021/11/21 10:23:06;;;;;;;3.25;0.93;;;20.50;99.90;;;;;;5012249;28;20050;-76
2021/11/21 10:25:32;;;;;;;4.10;1.08;;;20.50;99.90;;;;;;5009293;28;20517;-76
2021/11/21 10:28:19;;;;;;;3.90;1.13;;;20.70;99.90;;;;;;5004191;28;20045;-77
2021/11/21 10:31:06;;;;;;;5.00;0.85;;;20.80;99.90;;;;;;5009462;28;20048;-77
2021/11/21 10:33:48;;;;;;;4.45;1.10;;;20.60;99.90;;;;;;5011656;28;20054;-76
2021/11/21 10:36:28;;;;;;;3.30;0.80;;;20.30;99.90;;;;;;5006270;28;20050;-76
2021/11/21 10:38:55;;;;;;;6.43;1.00;;;20.20;99.90;;;;;;5008679;28;20481;-76
2021/11/21 10:41:36;;;;;;;4.55;0.80;;;20.10;99.90;;;;;;5005451;28;20049;-77
2021/11/21 10:44:04;;;;;;;2.47;0.90;;;20.00;99.90;;;;;;5007507;28;20050;-77
2021/11/21 10:46:36;;;;;;;9.52;0.85;;;19.90;99.90;;;;;;4987565;28;20053;-77
2021/11/21 10:49:28;;;;;;;2.70;1.00;;;19.90;99.90;;;;;;5005443;28;20085;-78
2021/11/21 10:52:17;;;;;;;3.03;0.88;;;19.70;99.90;;;;;;5006176;28;20073;-76
2021/11/21 10:54:52;;;;;;;4.05;0.85;;;19.60;99.90;;;;;;4989978;28;20050;-76
2021/11/21 10:57:21;;;;;;;3.00;0.70;;;19.60;99.90;;;;;;5006504;28;20566;-78
2021/11/21 10:59:55;;;;;;;1.30;0.70;;;19.60;99.90;;;;;;5006435;28;20049;-77
2021/11/21 11:02:21;;;;;;;1.63;0.80;;;19.70;99.90;;;;;;5007136;28;20053;-77
2021/11/21 11:05:06;;;;;;;7.30;0.70;;;19.60;99.90;;;;;;5009023;28;20116;-77
2021/11/21 11:07:41;;;;;;;6.28;1.00;;;19.50;99.90;;;;;;5005011;28;20078;-76
2021/11/21 11:10:13;;;;;;;4.22;0.70;;;19.50;99.90;;;;;;5005631;28;20050;-76
2021/11/21 11:12:41;;;;;;;8.07;1.00;;;19.60;99.90;;;;;;5007630;28;20134;-76
2021/11/21 11:15:07;;;;;;;1.98;0.70;;;19.60;99.90;;;;;;5008569;28;20081;-77
2021/11/21 11:17:35;;;;;;;4.43;1.17;;;19.50;99.90;;;;;;5004145;28;20064;-77
2021/11/21 11:20:04;;;;;;;5.72;0.93;;;19.40;99.90;;;;;;5007998;28;20129;-76
2021/11/21 11:22:29;;;;;;;3.20;0.70;;;19.30;99.90;;;;;;5012803;28;20112;-76
2021/11/21 11:24:57;;;;;;;3.28;0.90;;;19.20;99.90;;;;;;5013151;28;20050;-75
2021/11/21 11:27:45;;;;;;;5.07;0.90;;;19.20;99.90;;;;;;5009875;28;20125;-76
2021/11/21 11:30:11;;;;;;;3.35;1.05;;;19.40;99.90;;;;;;5010559;28;20405;-76
2021/11/21 11:32:42;;;;;;;5.45;0.82;;;19.60;99.90;;;;;;5012592;28;20437;-76
2021/11/21 11:35:35;;;;;;;5.90;0.93;;;19.80;99.90;;;;;;5011833;28;20529;-77
2021/11/21 11:38:08;;;;;;;2.83;0.90;;;20.00;99.90;;;;;;5008365;28;20497;-77
2021/11/21 11:40:40;;;;;;;5.00;1.33;;;20.00;99.90;;;;;;5007102;28;20048;-76
2021/11/21 11:43:19;;;;;;;3.42;0.90;;;20.00;99.90;;;;;;5010866;28;20049;-76
2021/11/21 11:45:59;;;;;;;6.82;0.80;;;20.10;99.90;;;;;;5011970;28;20050;-76
2021/11/21 11:48:39;;;;;;;3.88;0.90;;;20.10;99.90;;;;;;5009918;28;20615;-76
2021/11/21 11:51:04;;;;;;;2.58;1.15;;;20.10;99.90;;;;;;5008533;28;20049;-76
2021/11/21 11:53:33;;;;;;;2.17;0.70;;;19.90;99.90;;;;;;5014258;28;20050;-76
2021/11/21 11:56:17;;;;;;;4.30;1.02;;;19.90;99.90;;;;;;5010840;28;20151;-76
2021/11/21 11:58:50;;;;;;;6.85;0.98;;;20.00;99.90;;;;;;5007108;28;20042;-76
2021/11/21 12:01:38;;;;;;;2.70;1.30;;;20.00;99.90;;;;;;5002064;28;20427;-76
2021/11/21 12:04:16;;;;;;;11.32;1.92;;;19.80;99.90;;;;;;5008094;28;20049;-76
2021/11/21 12:06:51;;;;;;;3.65;1.40;;;19.70;99.90;;;;;;5004220;28;20794;-76
2021/11/21 12:09:22;;;;;;;3.15;1.70;;;19.70;99.90;;;;;;5003213;28;20120;-76
2021/11/21 12:12:05;;;;;;;7.88;1.20;;;19.60;99.90;;;;;;4981804;28;20143;-77
2021/11/21 12:14:39;;;;;;;2.90;1.73;;;19.50;99.90;;;;;;4987023;28;20065;-76
2021/11/21 12:17:09;;;;;;;4.75;1.48;;;19.40;99.90;;;;;;5027886;28;20050;-75
2021/11/21 12:19:40;;;;;;;5.05;1.90;;;19.40;99.90;;;;;;5026908;28;20045;-76
2021/11/21 12:22:29;;;;;;;4.75;1.80;;;19.30;99.90;;;;;;5026440;28;20049;-75
2021/11/21 12:24:58;;;;;;;4.00;1.60;;;19.30;99.90;;;;;;5029200;28;20053;-75
2021/11/21 12:27:27;;;;;;;6.27;1.73;;;19.30;99.90;;;;;;5030755;28;20041;-75
2021/11/21 12:30:21;;;;;;;6.05;1.88;;;19.30;99.90;;;;;;5028021;28;20300;-76
2021/11/21 12:33:17;;;;;;;2.50;1.50;;;19.20;99.90;;;;;;5006569;28;20054;-75
2021/11/21 12:35:50;;;;;;;5.50;1.52;;;19.20;99.90;;;;;;5011027;28;20050;-76
2021/11/21 12:38:21;;;;;;;6.07;1.65;;;19.20;99.90;;;;;;5016958;28;20251;-75
2021/11/21 12:40:47;;;;;;;10.30;1.90;;;19.10;99.90;;;;;;5023480;28;20470;-76
2021/11/21 12:43:18;;;;;;;5.95;1.77;;;19.10;99.90;;;;;;5022136;28;20125;-76
2021/11/21 12:45:46;;;;;;;3.75;1.40;;;19.10;99.90;;;;;;5019003;28;20061;-75
2021/11/21 12:48:14;;;;;;;4.15;1.20;;;19.00;99.90;;;;;;5016516;28;20061;-76
2021/11/21 12:50:50;;;;;;;3.30;1.27;;;19.00;99.90;;;;;;5021383;28;20060;-75
2021/11/21 12:53:33;;;;;;;4.78;1.35;;;19.00;99.90;;;;;;5019069;28;20169;-76